Time;durP1;ratioP1;P1;durP2;ratioP2;P2;SDS_P1;SDS_P2;PMS_P1;PMS_P2;Temp;Humidity;BMP_temperature;BMP_pressure;BME280_temperature;BME280_humidity;BME280_pressure;Samples;Min_cycle;Max_cycle;Signal;HPM_P1;HPM_P2
2022/09/29 00:01:24;;;;;;;1.38;1.25;;;;;;;13.84;91.03;98112.81;5095546;28;20482;-68
2022/09/29 00:03:53;;;;;;;1.13;1.05;;;;;;;13.80;90.59;98113.81;5095717;28;20043;-68
2022/09/29 00:06:21;;;;;;;1.10;1.05;;;;;;;13.82;90.84;98112.06;5095616;28;20406;-68
2022/09/29 00:08:51;;;;;;;1.10;1.00;;;;;;;13.77;90.72;98101.16;5095008;28;20044;-68
2022/09/29 00:11:21;;;;;;;0.90;0.90;;;;;;;13.78;90.90;98105.34;5094618;28;20047;-68
2022/09/29 00:13:49;;;;;;;0.50;0.50;;;;;;;13.77;90.95;98113.97;5096082;28;20044;-69
2022/09/29 00:16:19;;;;;;;1.50;0.80;;;;;;;13.76;90.53;98122.53;5095154;28;20040;-68
2022/09/29 00:18:48;;;;;;;0.95;0.90;;;;;;;13.74;90.91;98117.47;5095177;28;20042;-68
2022/09/29 00:21:19;;;;;;;0.57;0.57;;;;;;;13.75;90.83;98123.44;5095177;28;20047;-68
2022/09/29 00:23:49;;;;;;;1.40;0.95;;;;;;;13.73;90.63;98112.38;5095546;28;20048;-68
2022/09/29 00:26:21;;;;;;;0.95;0.85;;;;;;;13.73;90.87;98113.22;5095021;28;20040;-68
2022/09/29 00:28:52;;;;;;;0.45;0.45;;;;;;;13.73;90.46;98117.50;5095297;28;20048;-68
2022/09/29 00:31:22;;;;;;;0.82;0.75;;;;;;;13.73;90.68;98107.25;5095529;28;20044;-68
2022/09/29 00:33:51;;;;;;;1.48;1.38;;;;;;;13.72;90.79;98082.53;5094863;28;20052;-67
2022/09/29 00:36:22;;;;;;;3.30;1.02;;;;;;;13.68;90.80;98083.53;5095053;28;20043;-67
2022/09/29 00:38:52;;;;;;;2.05;0.77;;;;;;;13.61;90.30;98087.22;5095029;28;20079;-68
2022/09/29 00:41:25;;;;;;;0.50;0.50;;;;;;;13.57;90.23;98085.69;5095148;28;20070;-68
2022/09/29 00:43:58;;;;;;;0.30;0.30;;;;;;;13.53;90.16;98094.38;5094677;28;20546;-68
2022/09/29 00:46:34;;;;;;;0.82;0.82;;;;;;;13.49;90.12;98100.50;5094555;28;20055;-68
2022/09/29 00:49:07;;;;;;;1.38;1.27;;;;;;;13.43;90.14;98094.75;5094948;28;20040;-67
2022/09/29 00:51:39;;;;;;;1.38;1.27;;;;;;;13.41;89.52;98093.94;5094526;28;20056;-67
2022/09/29 00:54:09;;;;;;;0.60;0.60;;;;;;;13.37;88.73;98096.69;5094639;28;20126;-69
2022/09/29 00:56:42;;;;;;;0.40;0.40;;;;;;;13.35;88.37;98099.31;5094725;28;20040;-67
2022/09/29 00:59:14;;;;;;;1.38;0.60;;;;;;;13.29;86.99;98096.97;5094479;28;20051;-67
2022/09/29 01:01:43;;;;;;;0.35;0.35;;;;;;;13.25;85.97;98104.81;5095008;28;20374;-68
2022/09/29 01:04:15;;;;;;;0.38;0.38;;;;;;;13.23;85.23;98110.00;5094256;28;20044;-69
2022/09/29 01:06:48;;;;;;;1.13;1.05;;;;;;;13.20;84.29;98106.72;5094245;28;20131;-69
2022/09/29 01:09:20;;;;;;;0.32;0.32;;;;;;;13.17;83.49;98112.78;5094570;28;20040;-69
2022/09/29 01:11:51;;;;;;;0.30;0.30;;;;;;;13.16;82.47;98110.28;5094496;28;20036;-68
2022/09/29 01:14:21;;;;;;;0.40;0.40;;;;;;;13.07;81.83;98106.34;5094168;28;20048;-66
2022/09/29 01:16:50;;;;;;;0.30;0.30;;;;;;;13.05;80.66;98110.63;5094407;28;20146;-68
2022/09/29 01:19:28;;;;;;;0.20;0.20;;;;;;;13.01;80.12;98121.88;5094096;28;20089;-68
2022/09/29 01:22:06;;;;;;;0.30;0.30;;;;;;;13.01;79.17;98121.88;5093725;28;20127;-67
2022/09/29 01:24:56;;;;;;;0.40;0.40;;;;;;;12.96;78.70;98116.06;5094058;28;20549;-67
2022/09/29 01:27:40;;;;;;;;;;;;;;;12.94;78.34;98128.09;5094616;28;20054;-68
2022/09/29 01:30:17;;;;;;;0.40;0.40;;;;;;;12.90;77.94;98124.00;5093940;28;20369;-68
2022/09/29 01:33:14;;;;;;;0.32;0.32;;;;;;;12.88;77.46;98110.41;5093905;28;20044;-66
2022/09/29 01:35:56;;;;;;;0.30;0.30;;;;;;;12.85;77.32;98115.63;5093886;28;20047;-68
2022/09/29 01:38:53;;;;;;;0.40;0.40;;;;;;;12.80;77.12;98122.63;5093769;28;20093;-68
2022/09/29 01:41:40;;;;;;;0.38;0.38;;;;;;;12.70;76.90;98105.91;5093809;28;20040;-67
2022/09/29 01:44:19;;;;;;;0.30;0.30;;;;;;;12.78;77.04;98121.84;5094307;28;20377;-69
2022/09/29 01:46:53;;;;;;;0.93;0.68;;;;;;;12.80;77.19;98127.75;5093870;28;20059;-68
2022/09/29 01:49:26;;;;;;;0.28;0.28;;;;;;;12.80;77.15;98130.31;5093903;28;20458;-68
2022/09/29 01:52:03;;;;;;;0.30;0.30;;;;;;;12.80;77.59;98132.88;5093747;28;20052;-68
2022/09/29 01:54:40;;;;;;;0.50;0.50;;;;;;;12.79;77.73;98136.31;5093954;28;20071;-69
2022/09/29 01:57:11;;;;;;;0.30;0.30;;;;;;;12.77;77.80;98145.78;5093622;28;20044;-68
2022/09/29 01:59:47;;;;;;;0.45;0.45;;;;;;;12.74;78.04;98161.25;5093265;28;20048;-69
2022/09/29 02:02:22;;;;;;;0.50;0.50;;;;;;;12.64;78.12;98157.34;5093619;28;20044;-68
2022/09/29 02:04:57;;;;;;;0.30;0.30;;;;;;;12.62;78.63;98159.91;5093513;28;20047;-69
2022/09/29 02:07:33;;;;;;;0.30;0.30;;;;;;;12.65;78.93;98169.22;5092352;28;20044;-69
2022/09/29 02:10:07;;;;;;;0.40;0.40;;;;;;;12.63;78.89;98174.41;5093364;28;20051;-69
2022/09/29 02:12:39;;;;;;;0.30;0.30;;;;;;;12.55;78.92;98162.72;5093799;28;20051;-68
2022/09/29 02:15:12;;;;;;;0.40;0.40;;;;;;;12.58;79.22;98171.16;5093545;28;20506;-68
2022/09/29 02:17:45;;;;;;;0.47;0.47;;;;;;;12.55;79.15;98173.81;5094006;28;20481;-69
2022/09/29 02:20:14;;;;;;;0.30;0.30;;;;;;;12.54;78.95;98181.53;5093585;28;20374;-68
2022/09/29 02:22:45;;;;;;;;;;;;;;;12.53;79.54;98182.41;5093845;28;20110;-68
2022/09/29 02:25:17;;;;;;;0.43;0.43;;;;;;;12.49;80.24;98184.25;5093608;28;20273;-68
2022/09/29 02:27:49;;;;;;;0.75;0.75;;;;;;;12.46;80.27;98188.63;5093364;28;20059;-68
2022/09/29 02:30:19;;;;;;;0.30;0.30;;;;;;;12.45;80.69;98197.22;5093573;28;20048;-68
2022/09/29 02:32:48;;;;;;;0.30;0.30;;;;;;;12.43;81.05;98188.75;5093824;28;20047;-68
2022/09/29 02:35:17;;;;;;;0.40;0.40;;;;;;;12.42;81.17;98192.19;5097485;28;20044;-68
2022/09/29 02:38:01;;;;;;;0.40;0.40;;;;;;;12.42;81.38;98189.63;5097155;28;20040;-68
2022/09/29 02:40:41;;;;;;;0.30;0.30;;;;;;;12.42;81.70;98187.06;5097338;28;20273;-68
2022/09/29 02:43:36;;;;;;;0.30;0.30;;;;;;;12.38;82.05;98180.38;5097034;28;20129;-68
2022/09/29 02:46:19;;;;;;;0.40;0.40;;;;;;;12.37;82.47;98181.25;5096994;28;20094;-67
2022/09/29 02:49:09;;;;;;;0.30;0.30;;;;;;;12.34;82.45;98177.06;5096947;28;20059;-68
2022/09/29 02:51:41;;;;;;;0.43;0.43;;;;;;;12.32;82.51;98175.44;5097224;28;20044;-67
2022/09/29 02:54:25;;;;;;;0.40;0.40;;;;;;;12.28;82.38;98168.75;5097203;28;20127;-67
2022/09/29 02:57:02;;;;;;;0.40;0.40;;;;;;;12.27;82.62;98185.81;5097153;28;20031;-68
2022/09/29 02:59:37;;;;;;;0.40;0.40;;;;;;;12.26;82.78;98175.66;5096584;28;20420;-68
2022/09/29 03:02:06;;;;;;;0.30;0.30;;;;;;;12.23;82.95;98168.06;5096674;28;20047;-68
2022/09/29 03:04:35;;;;;;;0.30;0.30;;;;;;;12.21;83.00;98167.28;5096620;28;20434;-68
2022/09/29 03:07:03;;;;;;;0.40;0.40;;;;;;;12.07;83.15;98148.09;5096901;28;20032;-68
2022/09/29 03:09:33;;;;;;;0.63;0.63;;;;;;;12.19;83.40;98158.81;5096536;28;20036;-68
2022/09/29 03:12:02;;;;;;;0.80;0.80;;;;;;;12.19;83.08;98164.75;5096480;28;20101;-67
2022/09/29 03:14:31;;;;;;;0.38;0.38;;;;;;;12.15;83.37;98173.41;5096744;28;20047;-68
2022/09/29 03:16:59;;;;;;;1.45;0.93;;;;;;;12.14;83.29;98173.47;5096714;28;20443;-68
2022/09/29 03:19:28;;;;;;;0.32;0.32;;;;;;;12.16;83.53;98174.25;5096343;28;20044;-67
2022/09/29 03:21:57;;;;;;;0.30;0.30;;;;;;;12.14;83.70;98165.81;5096350;28;20035;-67
2022/09/29 03:24:26;;;;;;;0.40;0.40;;;;;;;12.13;83.92;98170.06;5096186;28;20275;-67
2022/09/29 03:26:56;;;;;;;0.30;0.30;;;;;;;12.13;83.99;98159.00;5096368;28;20393;-67
2022/09/29 03:29:25;;;;;;;0.20;0.20;;;;;;;12.10;84.11;98168.44;5096190;28;20071;-67
2022/09/29 03:31:53;;;;;;;0.40;0.40;;;;;;;12.08;84.06;98161.72;5096503;28;20115;-67
2022/09/29 03:34:22;;;;;;;0.22;0.22;;;;;;;12.05;84.28;98157.53;5096352;28;20036;-68
2022/09/29 03:36:51;;;;;;;0.40;0.40;;;;;;;12.05;84.34;98157.53;5096285;28;20070;-68
2022/09/29 03:39:20;;;;;;;0.47;0.47;;;;;;;12.03;84.29;98154.19;5096020;28;20074;-67
2022/09/29 03:41:49;;;;;;;0.70;0.70;;;;;;;12.08;84.35;98157.44;5095914;28;20042;-67
2022/09/29 03:44:19;;;;;;;0.50;0.50;;;;;;;12.09;84.48;98159.09;5095932;28;20040;-68
2022/09/29 03:46:48;;;;;;;0.75;0.68;;;;;;;12.13;84.83;98159.00;5095741;28;20493;-68
2022/09/29 03:49:16;;;;;;;0.60;0.60;;;;;;;12.13;84.65;98153.88;5095798;28;20045;-67
2022/09/29 03:51:45;;;;;;;0.80;0.70;;;;;;;12.13;84.86;98153.88;5095768;28;20118;-67
2022/09/29 03:54:14;;;;;;;1.00;0.88;;;;;;;12.12;84.79;98168.41;5095903;28;20527;-67
2022/09/29 03:56:43;;;;;;;0.40;0.40;;;;;;;12.10;84.51;98170.16;5096741;28;20044;-67
2022/09/29 03:59:13;;;;;;;0.30;0.30;;;;;;;12.09;84.72;98177.00;5095255;28;20044;-68
2022/09/29 04:01:44;;;;;;;0.38;0.38;;;;;;;12.10;84.14;98171.00;5095552;28;20135;-68
2022/09/29 04:04:13;;;;;;;0.47;0.47;;;;;;;12.12;84.30;98172.69;5095463;28;20052;-68
2022/09/29 04:06:41;;;;;;;0.30;0.30;;;;;;;12.12;84.46;98167.59;5095329;28;20547;-68
2022/09/29 04:09:10;;;;;;;0.30;0.30;;;;;;;12.12;84.67;98177.81;5095398;28;20501;-68
2022/09/29 04:11:39;;;;;;;0.40;0.40;;;;;;;12.10;84.63;98168.44;5095355;28;20123;-68
2022/09/29 04:14:07;;;;;;;0.40;0.40;;;;;;;12.09;84.80;98168.50;5095242;28;20040;-68
2022/09/29 04:16:36;;;;;;;1.02;0.98;;;;;;;12.12;84.92;98157.34;5095518;28;20050;-68
2022/09/29 04:19:06;;;;;;;0.40;0.40;;;;;;;12.10;84.88;98145.44;5095211;28;20039;-67
2022/09/29 04:21:35;;;;;;;0.50;0.50;;;;;;;12.04;84.85;98140.50;5095455;28;20067;-66
2022/09/29 04:24:04;;;;;;;0.40;0.40;;;;;;;11.99;84.82;98152.63;5095357;28;20036;-68
2022/09/29 04:26:32;;;;;;;0.40;0.40;;;;;;;12.00;84.94;98158.53;5095318;28;20048;-67
2022/09/29 04:29:01;;;;;;;0.50;0.50;;;;;;;12.03;84.95;98143.97;5094974;28;20105;-66
2022/09/29 04:31:30;;;;;;;0.73;0.73;;;;;;;12.04;84.82;98150.72;5094885;28;20048;-68
2022/09/29 04:33:59;;;;;;;0.50;0.50;;;;;;;12.05;84.94;98154.97;5095237;28;20044;-68
2022/09/29 04:36:29;;;;;;;0.30;0.30;;;;;;;12.02;85.16;98155.06;5094816;28;20071;-66
2022/09/29 04:38:58;;;;;;;0.30;0.30;;;;;;;11.99;85.05;98165.41;5095119;28;20039;-67
2022/09/29 04:41:26;;;;;;;0.85;0.75;;;;;;;12.00;85.16;98174.72;5095122;28;20039;-69
2022/09/29 04:43:55;;;;;;;0.50;0.50;;;;;;;12.02;85.12;98177.25;5095053;28;20386;-66
2022/09/29 04:46:23;;;;;;;0.55;0.55;;;;;;;11.99;85.43;98167.97;5094508;28;20040;-68
2022/09/29 04:48:52;;;;;;;0.40;0.40;;;;;;;11.95;85.52;98171.47;5094571;28;20563;-68
2022/09/29 04:51:21;;;;;;;0.40;0.40;;;;;;;11.98;85.84;98171.38;5094829;28;20486;-68
2022/09/29 04:53:52;;;;;;;0.70;0.68;;;;;;;11.97;85.80;98179.94;5094525;28;20046;-68
2022/09/29 04:56:21;;;;;;;0.40;0.40;;;;;;;11.99;86.02;98188.41;5093844;28;20051;-68
2022/09/29 04:58:50;;;;;;;0.68;0.68;;;;;;;12.00;86.16;98179.84;5094449;28;20050;-68
2022/09/29 05:01:18;;;;;;;0.40;0.40;;;;;;;12.00;86.06;98184.94;5094740;28;20036;-68
2022/09/29 05:03:47;;;;;;;0.37;0.37;;;;;;;12.02;85.87;98185.75;5094257;28;20072;-68
2022/09/29 05:06:16;;;;;;;0.70;0.70;;;;;;;12.02;86.00;98188.28;5094469;28;20397;-68
2022/09/29 05:08:45;;;;;;;0.50;0.50;;;;;;;11.99;86.03;98193.53;5094291;28;20032;-68
2022/09/29 05:11:15;;;;;;;0.50;0.50;;;;;;;12.03;86.20;98195.09;5094223;28;20040;-68
2022/09/29 05:13:43;;;;;;;0.47;0.47;;;;;;;12.03;86.27;98189.97;5094225;28;20051;-68
2022/09/29 05:16:12;;;;;;;0.40;0.40;;;;;;;12.01;86.15;98191.75;5094076;28;20037;-68
2022/09/29 05:18:41;;;;;;;0.70;0.70;;;;;;;12.02;86.08;98198.53;5094181;28;20386;-68
2022/09/29 05:21:10;;;;;;;0.95;0.88;;;;;;;12.02;86.04;98193.41;5093978;28;20072;-67
2022/09/29 05:23:57;;;;;;;1.65;1.55;;;;;;;12.02;85.98;98193.41;5094061;28;20051;-67
2022/09/29 05:26:27;;;;;;;0.50;0.50;;;;;;;12.03;86.13;98194.25;5094417;28;20429;-67
2022/09/29 05:28:56;;;;;;;2.70;1.05;;;;;;;12.04;86.18;98191.63;5093989;28;20048;-67
2022/09/29 05:31:25;;;;;;;0.73;0.73;;;;;;;12.03;86.19;98189.97;5093897;28;20032;-67
2022/09/29 05:33:56;;;;;;;0.45;0.45;;;;;;;12.03;86.53;98197.66;5093869;28;20074;-67
2022/09/29 05:36:25;;;;;;;0.30;0.30;;;;;;;12.02;86.43;98193.41;5093813;28;20055;-67
2022/09/29 05:38:55;;;;;;;0.40;0.40;;;;;;;12.00;86.15;98189.22;5093851;28;20051;-67
2022/09/29 05:41:23;;;;;;;0.73;0.73;;;;;;;11.99;86.21;98198.63;5093830;28;20078;-68
2022/09/29 05:43:55;;;;;;;0.57;0.57;;;;;;;11.96;86.15;98187.66;5093649;28;20038;-67
2022/09/29 05:46:23;;;;;;;0.75;0.63;;;;;;;12.04;86.32;98206.97;5094061;28;20071;-67
2022/09/29 05:48:52;;;;;;;0.40;0.40;;;;;;;12.02;86.13;98202.81;5093706;28;20119;-68
2022/09/29 05:51:23;;;;;;;0.60;0.60;;;;;;;12.03;86.18;98202.75;5092713;28;20040;-67
2022/09/29 05:53:52;;;;;;;0.82;0.55;;;;;;;12.06;85.98;98214.63;5093636;28;20054;-68
2022/09/29 05:56:22;;;;;;;0.67;0.67;;;;;;;12.04;86.04;98212.09;5094197;28;20040;-67
2022/09/29 05:58:54;;;;;;;0.40;0.40;;;;;;;12.01;85.95;98209.66;5093860;28;20287;-68
2022/09/29 06:01:25;;;;;;;0.47;0.47;;;;;;;12.03;85.92;98210.44;5093969;28;20051;-68
2022/09/29 06:03:54;;;;;;;1.80;1.42;;;;;;;12.01;85.87;98212.22;5093541;28;20048;-68
2022/09/29 06:06:26;;;;;;;0.47;0.47;;;;;;;12.00;85.81;98207.13;5093382;28;20474;-68
2022/09/29 06:08:57;;;;;;;0.73;0.73;;;;;;;12.02;85.71;98207.94;5095895;28;20044;-67
2022/09/29 06:11:28;;;;;;;0.38;0.38;;;;;;;12.01;85.40;98207.09;5097621;28;20044;-67
2022/09/29 06:13:58;;;;;;;0.50;0.50;;;;;;;11.93;85.91;98206.47;5097640;28;20048;-68
2022/09/29 06:16:30;;;;;;;0.30;0.30;;;;;;;11.98;85.85;98221.69;5097558;28;20508;-67
2022/09/29 06:19:00;;;;;;;0.40;0.40;;;;;;;12.01;85.72;98208.81;5097562;28;20044;-67
2022/09/29 06:21:30;;;;;;;0.25;0.25;;;;;;;12.04;85.57;98212.09;5097418;28;20048;-67
2022/09/29 06:23:59;;;;;;;0.77;0.77;;;;;;;12.01;85.74;98207.09;5097418;28;20099;-67
2022/09/29 06:26:28;;;;;;;0.65;0.55;;;;;;;12.00;85.50;98200.28;5097580;28;20048;-67
2022/09/29 06:28:58;;;;;;;0.50;0.50;;;;;;;11.99;85.49;98208.88;5097590;28;20043;-67
2022/09/29 06:31:29;;;;;;;0.30;0.30;;;;;;;11.98;85.57;98204.63;5117493;28;20044;-67
2022/09/29 06:33:59;;;;;;;0.55;0.55;;;;;;;12.02;85.43;98205.38;5117692;28;20043;-68
2022/09/29 06:39:12;;;;;;;0.70;0.70;;;;;;;12.10;85.52;98196.59;5117513;28;20043;-67
2022/09/29 06:41:43;;;;;;;1.77;0.38;;;;;;;12.08;85.42;98200.91;5116720;28;20071;-67
2022/09/29 06:44:13;;;;;;;0.82;0.82;;;;;;;12.07;85.25;98201.78;5116556;28;20119;-67
2022/09/29 06:46:42;;;;;;;0.55;0.55;;;;;;;12.12;85.19;98211.88;5107647;28;20405;-67
2022/09/29 06:49:12;;;;;;;0.20;0.20;;;;;;;12.18;85.05;98205.75;5096586;28;20561;-67
2022/09/29 06:51:42;;;;;;;0.30;0.30;;;;;;;12.18;84.82;98213.41;5097500;28;20505;-67
2022/09/29 06:54:15;;;;;;;0.55;0.55;;;;;;;12.19;84.48;98202.31;5098942;28;20040;-68
2022/09/29 06:56:47;;;;;;;0.30;0.30;;;;;;;12.28;84.47;98214.81;5100499;28;20047;-67
2022/09/29 06:59:17;;;;;;;1.02;0.98;;;;;;;12.30;84.20;98213.88;5096492;28;20050;-67
2022/09/29 07:01:49;;;;;;;0.75;0.75;;;;;;;12.35;84.16;98221.41;5096656;28;20048;-67
2022/09/29 07:04:20;;;;;;;0.40;0.40;;;;;;;12.36;83.84;98228.16;5096946;28;20040;-66
2022/09/29 07:06:50;;;;;;;0.77;0.77;;;;;;;12.36;83.81;98217.94;5108815;28;20409;-66
2022/09/29 07:09:19;;;;;;;1.08;0.73;;;;;;;12.37;83.49;98224.75;5106266;28;20078;-67
2022/09/29 07:11:50;;;;;;;1.05;1.00;;;;;;;12.45;83.25;98233.03;5096578;28;20130;-67
2022/09/29 07:14:24;;;;;;;0.40;0.40;;;;;;;12.47;83.50;98232.09;5096726;28;20071;-67
2022/09/29 07:16:53;;;;;;;10.05;1.05;;;;;;;12.53;83.05;98225.91;5098790;28;20051;-67
2022/09/29 07:19:22;;;;;;;6.15;1.45;;;;;;;12.55;83.48;98229.25;5103661;28;20510;-66
2022/09/29 07:21:51;;;;;;;0.57;0.57;;;;;;;12.54;83.23;98230.16;5096900;28;20051;-66
2022/09/29 07:24:20;;;;;;;0.30;0.30;;;;;;;12.54;82.70;98227.63;5096266;28;20048;-67
2022/09/29 07:26:49;;;;;;;0.60;0.60;;;;;;;12.51;82.89;98223.44;5096482;28;20048;-67
2022/09/29 07:29:18;;;;;;;0.60;0.60;;;;;;;12.59;82.75;98231.72;5096261;28;20098;-67
2022/09/29 07:31:51;;;;;;;0.40;0.40;;;;;;;12.62;82.55;98225.66;5099280;28;20089;-69
2022/09/29 07:34:21;;;;;;;0.50;0.50;;;;;;;12.63;82.42;98225.59;5096306;28;20429;-67
2022/09/29 07:36:50;;;;;;;0.40;0.40;;;;;;;12.71;82.48;98217.66;5098477;28;20503;-66
2022/09/29 07:39:20;;;;;;;0.50;0.50;;;;;;;12.71;82.39;98215.94;5096503;28;20490;-66
2022/09/29 07:41:50;;;;;;;0.40;0.40;;;;;;;12.79;82.21;98223.34;5103963;28;20052;-66
2022/09/29 07:44:19;;;;;;;0.95;0.65;;;;;;;12.77;81.84;98227.69;5100468;28;20090;-68
2022/09/29 07:46:50;;;;;;;0.88;0.85;;;;;;;12.74;81.91;98231.19;5107117;28;20044;-66
2022/09/29 07:49:19;;;;;;;1.35;0.88;;;;;;;12.73;81.73;98234.66;5103794;28;20052;-67
2022/09/29 07:51:48;;;;;;;0.87;0.70;;;;;;;12.77;81.91;98232.81;5116393;28;20145;-68
2022/09/29 07:54:16;;;;;;;0.40;0.40;;;;;;;12.90;82.09;98234.09;5113671;28;20497;-68
2022/09/29 07:56:45;;;;;;;0.30;0.30;;;;;;;12.99;81.61;98240.63;5104460;28;20066;-68
2022/09/29 07:59:14;;;;;;;0.55;0.55;;;;;;;13.14;81.53;98242.72;5095648;28;20059;-67
2022/09/29 08:01:42;;;;;;;0.40;0.40;;;;;;;13.26;81.41;98243.13;5095804;28;20123;-67
2022/09/29 08:04:12;;;;;;;0.63;0.63;;;;;;;13.27;81.18;98231.97;5095452;28;20048;-67
2022/09/29 08:06:42;;;;;;;0.32;0.32;;;;;;;13.37;80.31;98238.47;5095992;28;20048;-66
2022/09/29 08:09:11;;;;;;;0.40;0.40;;;;;;;13.39;79.51;98239.22;5104719;28;20051;-67
2022/09/29 08:11:41;;;;;;;0.40;0.40;;;;;;;13.38;78.98;98240.13;5107613;28;20035;-67
2022/09/29 08:14:11;;;;;;;0.50;0.50;;;;;;;13.53;78.67;98243.06;5095868;28;20139;-68
2022/09/29 08:16:40;;;;;;;0.55;0.40;;;;;;;13.65;78.86;98242.63;5095775;28;20047;-68
2022/09/29 08:19:08;;;;;;;0.55;0.55;;;;;;;13.71;78.31;98238.09;5095176;28;20048;-68
2022/09/29 08:21:39;;;;;;;0.30;0.30;;;;;;;13.73;77.13;98240.59;5095045;28;20044;-68
2022/09/29 08:24:07;;;;;;;0.63;0.63;;;;;;;13.72;76.91;98233.81;5095372;28;20401;-68
2022/09/29 08:26:39;;;;;;;0.55;0.55;;;;;;;13.78;76.36;98248.94;5095342;28;20028;-68
2022/09/29 08:29:13;;;;;;;0.50;0.50;;;;;;;13.97;76.42;98262.75;5095345;28;20051;-67
2022/09/29 08:31:46;;;;;;;0.52;0.52;;;;;;;14.04;76.77;98256.50;5094349;28;20178;-68
2022/09/29 08:34:15;;;;;;;0.82;0.75;;;;;;;14.07;76.32;98261.53;5094903;28;20044;-67
2022/09/29 08:36:45;;;;;;;0.55;0.55;;;;;;;14.10;75.99;98261.44;5095202;28;20119;-67
2022/09/29 08:39:15;;;;;;;0.30;0.30;;;;;;;14.25;75.77;98268.56;5095132;28;20032;-67
2022/09/29 08:41:51;;;;;;;;;;;;;;;14.35;74.88;98267.31;5094226;28;20520;-67
2022/09/29 08:44:27;;;;;;;0.85;0.85;;;;;;;14.40;74.69;98270.53;5106461;28;20365;-67
2022/09/29 08:47:18;;;;;;;0.93;0.85;;;;;;;14.42;74.50;98266.19;5113312;28;20126;-66
2022/09/29 08:49:52;;;;;;;0.40;0.40;;;;;;;14.40;73.53;98269.69;5106920;28;20116;-68
2022/09/29 08:52:29;;;;;;;0.40;0.40;;;;;;;14.40;74.05;98283.38;5094449;28;20085;-68
2022/09/29 08:55:24;;;;;;;0.38;0.38;;;;;;;14.58;73.62;98281.84;5104653;28;20046;-67
2022/09/29 08:57:57;;;;;;;0.38;0.38;;;;;;;14.69;73.62;98283.09;5094407;28;20052;-66
2022/09/29 09:00:39;;;;;;;0.38;0.38;;;;;;;14.76;72.63;98279.38;5096336;28;20050;-67
2022/09/29 09:03:21;;;;;;;0.35;0.35;;;;;;;14.89;72.24;98284.03;5103204;28;20048;-67
2022/09/29 09:06:20;;;;;;;0.30;0.30;;;;;;;15.08;71.74;98272.09;5094586;28;20405;-67
2022/09/29 09:09:07;;;;;;;0.55;0.55;;;;;;;15.24;71.96;98275.69;5094525;28;20170;-67
2022/09/29 09:11:52;;;;;;;0.85;0.77;;;;;;;15.31;70.35;98277.09;5094184;28;20520;-67
2022/09/29 09:14:39;;;;;;;0.40;0.40;;;;;;;15.35;68.69;98278.66;5097170;28;20443;-67
2022/09/29 09:17:25;;;;;;;0.65;0.65;;;;;;;15.45;68.58;98274.84;5112560;28;20130;-68
2022/09/29 09:20:10;;;;;;;0.50;0.50;;;;;;;15.45;67.24;98267.13;5114640;28;20043;-67
2022/09/29 09:22:52;;;;;;;0.50;0.50;;;;;;;15.55;67.19;98265.78;5114431;28;20043;-66
2022/09/29 09:25:30;;;;;;;0.47;0.47;;;;;;;15.61;66.94;98272.41;5114634;28;20451;-67
2022/09/29 09:28:05;;;;;;;0.40;0.40;;;;;;;15.59;66.35;98279.38;5114264;28;20044;-67
2022/09/29 09:30:43;;;;;;;0.45;0.45;;;;;;;15.74;66.28;98287.25;5114991;28;20035;-67
2022/09/29 09:33:22;;;;;;;0.55;0.50;;;;;;;15.81;65.69;98283.50;5114257;28;20051;-67
2022/09/29 09:36:03;;;;;;;0.30;0.30;;;;;;;15.79;65.29;98280.16;5114520;28;20040;-67
2022/09/29 09:38:44;;;;;;;0.43;0.43;;;;;;;15.82;65.28;98277.47;5114151;28;20055;-67
2022/09/29 09:41:19;;;;;;;0.50;0.50;;;;;;;15.85;65.37;98279.91;5114078;28;20044;-67
2022/09/29 09:43:52;;;;;;;0.22;0.22;;;;;;;16.04;65.34;98278.19;5114094;28;20055;-67
2022/09/29 09:46:26;;;;;;;0.17;0.17;;;;;;;16.19;64.62;98274.06;5114033;28;20050;-67
2022/09/29 09:49:11;;;;;;;0.50;0.50;;;;;;;16.32;64.03;98279.47;5114025;28;20085;-68
2022/09/29 09:51:50;;;;;;;0.32;0.32;;;;;;;16.38;62.73;98274.91;5113881;28;20051;-66
2022/09/29 09:54:30;;;;;;;0.40;0.40;;;;;;;16.43;62.26;98277.25;5114329;28;20505;-66
2022/09/29 09:57:27;;;;;;;0.32;0.32;;;;;;;16.17;62.28;98269.91;5114318;28;20051;-67
2022/09/29 10:00:07;;;;;;;0.50;0.50;;;;;;;16.22;62.36;98288.53;5113729;28;20048;-66
2022/09/29 10:02:46;;;;;;;0.40;0.40;;;;;;;16.29;61.83;98289.94;5113895;28;20048;-67
2022/09/29 10:05:17;;;;;;;0.30;0.30;;;;;;;16.29;61.62;98288.16;5114256;28;20040;-65
2022/09/29 10:07:47;;;;;;;0.30;0.30;;;;;;;16.28;60.74;98288.25;5107477;28;20066;-65
2022/09/29 10:10:19;;;;;;;0.50;0.50;;;;;;;16.46;60.14;98292.56;5112011;28;20469;-67
2022/09/29 10:12:58;;;;;;;0.40;0.40;;;;;;;16.54;58.80;98287.91;5111596;28;20039;-65
2022/09/29 10:15:32;;;;;;;0.20;0.20;;;;;;;16.41;56.72;98294.53;5112120;28;20123;-66
2022/09/29 10:18:07;;;;;;;0.40;0.40;;;;;;;16.28;56.84;98283.94;5093725;28;20040;-66
2022/09/29 10:20:38;;;;;;;1.17;1.08;;;;;;;16.45;56.95;98288.31;5092794;28;20093;-67
2022/09/29 10:23:26;;;;;;;0.30;0.30;;;;;;;16.73;57.27;98296.44;5093317;28;20048;-66
2022/09/29 10:26:00;;;;;;;0.43;0.43;;;;;;;16.84;55.99;98283.88;5093329;28;20498;-67
2022/09/29 10:28:41;;;;;;;0.40;0.40;;;;;;;16.84;55.08;98272.75;5093401;28;20281;-66
2022/09/29 10:31:18;;;;;;;0.50;0.50;;;;;;;17.04;55.24;98281.16;5093179;28;20493;-66
2022/09/29 10:33:51;;;;;;;0.40;0.40;;;;;;;17.21;54.99;98267.44;5093699;28;20082;-66
2022/09/29 10:36:20;;;;;;;0.50;0.50;;;;;;;17.27;55.18;98262.81;5093479;28;20062;-66
2022/09/29 10:38:52;;;;;;;0.45;0.45;;;;;;;17.30;54.75;98283.28;5093578;28;20462;-66
2022/09/29 10:41:21;;;;;;;0.30;0.30;;;;;;;17.28;54.45;98274.78;5093209;28;20101;-64
2022/09/29 10:43:52;;;;;;;0.20;0.20;;;;;;;17.24;54.96;98288.75;5093181;28;20466;-65
2022/09/29 10:46:49;;;;;;;0.50;0.50;;;;;;;17.20;54.77;98287.22;5093465;28;20044;-66
2022/09/29 10:49:20;;;;;;;0.40;0.40;;;;;;;17.24;54.41;98273.28;5091643;28;20051;-66
2022/09/29 10:52:02;;;;;;;0.55;0.55;;;;;;;17.28;54.74;98273.94;5093030;28;20056;-67
2022/09/29 10:54:33;;;;;;;0.30;0.30;;;;;;;17.22;54.16;98288.00;5094782;28;20516;-66
2022/09/29 10:57:13;;;;;;;0.68;0.68;;;;;;;17.13;54.02;98285.84;5096856;28;20079;-66
2022/09/29 10:59:54;;;;;;;0.30;0.30;;;;;;;17.07;54.04;98275.84;5096825;28;20471;-64
2022/09/29 11:02:28;;;;;;;0.43;0.43;;;;;;;17.03;54.56;98274.34;5097028;28;20048;-67
2022/09/29 11:05:01;;;;;;;0.47;0.47;;;;;;;17.05;54.77;98277.69;5096685;28;20048;-64
2022/09/29 11:07:31;;;;;;;0.45;0.45;;;;;;;16.97;53.95;98284.94;5096613;28;20051;-66
2022/09/29 11:10:00;;;;;;;3.78;1.35;;;;;;;16.99;53.54;98283.13;5096727;28;20043;-66
2022/09/29 11:12:32;;;;;;;0.43;0.43;;;;;;;17.01;53.50;98283.88;5096623;28;20040;-67
2022/09/29 11:15:03;;;;;;;0.40;0.40;;;;;;;17.08;52.65;98287.84;5098602;28;20040;-66
2022/09/29 11:17:37;;;;;;;0.98;0.60;;;;;;;17.13;51.57;98285.84;5096541;28;20048;-65
2022/09/29 11:20:14;;;;;;;0.40;0.40;;;;;;;17.21;51.16;98278.59;5096327;28;20569;-67
2022/09/29 11:22:58;;;;;;;1.02;0.95;;;;;;;17.32;50.85;98276.28;5096368;28;20090;-67
2022/09/29 11:25:57;;;;;;;0.43;0.43;;;;;;;17.29;49.74;98289.38;5096861;28;20444;-66
2022/09/29 11:28:49;;;;;;;0.40;0.40;;;;;;;17.28;49.51;98285.09;5091847;28;20050;-64
2022/09/29 11:31:42;;;;;;;0.38;0.38;;;;;;;17.33;50.28;98283.13;5116590;28;20136;-66
2022/09/29 11:34:34;;;;;;;0.40;0.40;;;;;;;17.29;51.13;98286.78;5117161;28;20094;-65
2022/09/29 11:37:13;;;;;;;0.40;0.40;;;;;;;17.30;51.89;98298.75;5113519;28;20043;-66
2022/09/29 11:39:47;;;;;;;4.72;1.85;;;;;;;17.40;52.65;98292.22;5098827;28;20068;-66
2022/09/29 11:42:33;;;;;;;0.65;0.65;;;;;;;17.42;52.56;98297.28;5096312;28;20044;-66
2022/09/29 11:45:03;;;;;;;0.38;0.38;;;;;;;17.49;52.49;98293.53;5096309;28;20033;-67
2022/09/29 11:47:57;;;;;;;0.45;0.45;;;;;;;17.59;52.22;98294.72;5095845;28;20078;-66
2022/09/29 11:50:42;;;;;;;0.30;0.30;;;;;;;17.67;52.21;98297.75;5095796;28;20044;-66
2022/09/29 11:53:27;;;;;;;0.47;0.47;;;;;;;17.89;52.37;98284.56;5095812;28;20508;-67
2022/09/29 11:56:16;;;;;;;0.88;0.85;;;;;;;18.14;51.88;98277.19;5094761;28;20066;-65
2022/09/29 11:58:56;;;;;;;2.53;1.67;;;;;;;18.13;51.68;98285.03;5095543;28;20052;-65
2022/09/29 12:01:36;;;;;;;;;;;;;;;17.92;51.55;98280.06;5095959;28;20051;-66
2022/09/29 12:04:18;;;;;;;0.50;0.50;;;;;;;17.76;51.31;98280.94;5097458;28;19927;-67
2022/09/29 12:06:53;;;;;;;0.50;0.50;;;;;;;17.65;52.05;98280.69;5108468;28;20123;-66